RYS3063 EPKT-LGZA
Flight info
| Callsign | RYS3063 |
|---|---|
| Flight time | N/A |
| Altitude | 32000 |
| Route | BABKO DCT NIDOK/N0436F330 DCT BALAP/N0439F350 DCT PARAK DCT TISAK DCT BGD DCT NANER DCT REDVA UL616 KOGAT DCT BITLA/N0440F340 DCT YNN/N0438F330 UT352 ASTUS |
| Aircraft | B738/M-SDE2E3FGHIRWXY/LB1 |
Departure
| Time | 2026-05-08 07:08 |
|---|---|
| Airport | Katowice Wojciech Korfanty International Airport (EPKT) |
Arrival
| Time | N/A |
|---|---|
| Airport | Zakynthos International Airport Dionysios Solomos (LGZA) |
| Time | Latitude | Longitude | Altitude | Speed | Heading |
|---|---|---|---|---|---|
| 2026-05-08 06:46 | 50.47185 | 19.07149 | 997 ft | 0 kts | 180° |
| 2026-05-08 06:57 | 50.47201 | 19.07149 | 997 ft | 4 kts | 180° |
| 2026-05-08 06:58 | 50.47225 | 19.07148 | 997 ft | 4 kts | 148° |
| 2026-05-08 06:58 | 50.47235 | 19.07120 | 997 ft | 2 kts | 90° |
| 2026-05-08 06:58 | 50.47235 | 19.07088 | 1001 ft | 2 kts | 90° |
| 2026-05-08 06:58 | 50.47235 | 19.07085 | 1000 ft | 0 kts | 90° |
| 2026-05-08 07:01 | 50.47235 | 19.07089 | 997 ft | 2 kts | 90° |
| 2026-05-08 07:01 | 50.47235 | 19.07163 | 1002 ft | 11 kts | 90° |
| 2026-05-08 07:01 | 50.47235 | 19.07291 | 1002 ft | 12 kts | 90° |
| 2026-05-08 07:02 | 50.47234 | 19.07414 | 1000 ft | 11 kts | 90° |
| 2026-05-08 07:02 | 50.47234 | 19.07536 | 999 ft | 11 kts | 90° |
| 2026-05-08 07:02 | 50.47235 | 19.07655 | 1002 ft | 11 kts | 90° |
| 2026-05-08 07:02 | 50.47235 | 19.07770 | 999 ft | 10 kts | 90° |
| 2026-05-08 07:03 | 50.47234 | 19.07882 | 999 ft | 10 kts | 90° |
| 2026-05-08 07:03 | 50.47233 | 19.07991 | 1001 ft | 10 kts | 90° |
| 2026-05-08 07:03 | 50.47232 | 19.08119 | 1003 ft | 15 kts | 90° |
| 2026-05-08 07:03 | 50.47232 | 19.08309 | 1001 ft | 20 kts | 90° |
| 2026-05-08 07:04 | 50.47232 | 19.08537 | 999 ft | 21 kts | 90° |
| 2026-05-08 07:04 | 50.47232 | 19.08758 | 997 ft | 20 kts | 90° |
| 2026-05-08 07:04 | 50.47232 | 19.08990 | 999 ft | 21 kts | 90° |
| 2026-05-08 07:04 | 50.47231 | 19.09220 | 1000 ft | 21 kts | 90° |
| 2026-05-08 07:05 | 50.47230 | 19.09443 | 997 ft | 20 kts | 91° |
| 2026-05-08 07:05 | 50.47229 | 19.09659 | 997 ft | 19 kts | 90° |
| 2026-05-08 07:05 | 50.47229 | 19.09868 | 997 ft | 19 kts | 90° |
| 2026-05-08 07:05 | 50.47256 | 19.10061 | 997 ft | 18 kts | 53° |
| 2026-05-08 07:06 | 50.47331 | 19.10213 | 997 ft | 18 kts | 52° |
| 2026-05-08 07:06 | 50.47405 | 19.10362 | 997 ft | 17 kts | 52° |
| 2026-05-08 07:06 | 50.47500 | 19.10448 | 998 ft | 16 kts | 360° |
| 2026-05-08 07:06 | 50.47583 | 19.10438 | 1000 ft | 8 kts | 335° |
| 2026-05-08 07:07 | 50.47595 | 19.10360 | 999 ft | 9 kts | 270° |
| 2026-05-08 07:07 | 50.47595 | 19.09996 | 995 ft | 72 kts | 270° |
| 2026-05-08 07:07 | 50.47598 | 19.08799 | 999 ft | 144 kts | 270° |
| 2026-05-08 07:07 | 50.47607 | 19.06979 | 1322 ft | 177 kts | 272° |
| 2026-05-08 07:08 | 50.47553 | 19.05038 | 2330 ft | 178 kts | 270° |
| 2026-05-08 07:08 | 50.47544 | 19.02960 | 2818 ft | 203 kts | 271° |
| 2026-05-08 07:08 | 50.47559 | 19.00659 | 3207 ft | 219 kts | 272° |
| 2026-05-08 07:08 | 50.47575 | 18.98143 | 3551 ft | 238 kts | 268° |
| 2026-05-08 07:09 | 50.47051 | 18.95678 | 4177 ft | 246 kts | 233° |
| 2026-05-08 07:09 | 50.45718 | 18.93952 | 4742 ft | 261 kts | 203° |
| 2026-05-08 07:09 | 50.43896 | 18.93439 | 5394 ft | 270 kts | 184° |
| 2026-05-08 07:09 | 50.42031 | 18.93290 | 6212 ft | 273 kts | 183° |
| 2026-05-08 07:10 | 50.40121 | 18.93163 | 7057 ft | 276 kts | 183° |
| 2026-05-08 07:10 | 50.38197 | 18.93021 | 7892 ft | 279 kts | 184° |
| 2026-05-08 07:10 | 50.36242 | 18.92878 | 8698 ft | 281 kts | 184° |
| 2026-05-08 07:10 | 50.34266 | 18.92741 | 9424 ft | 286 kts | 184° |
| 2026-05-08 07:11 | 50.32266 | 18.92601 | 10222 ft | 288 kts | 184° |
| 2026-05-08 07:11 | 50.30219 | 18.92456 | 10660 ft | 305 kts | 184° |
| 2026-05-08 07:11 | 50.28014 | 18.92296 | 10865 ft | 329 kts | 184° |
| 2026-05-08 07:11 | 50.25668 | 18.92127 | 11262 ft | 343 kts | 184° |
| 2026-05-08 07:12 | 50.23305 | 18.91956 | 11918 ft | 348 kts | 184° |
| 2026-05-08 07:12 | 50.20889 | 18.91780 | 12707 ft | 349 kts | 184° |
| 2026-05-08 07:12 | 50.18461 | 18.91601 | 13459 ft | 350 kts | 184° |
| 2026-05-08 07:12 | 50.16015 | 18.91426 | 14125 ft | 354 kts | 184° |
| 2026-05-08 07:13 | 50.13538 | 18.91246 | 14777 ft | 358 kts | 184° |
| 2026-05-08 07:13 | 50.11030 | 18.91058 | 15474 ft | 360 kts | 185° |
| 2026-05-08 07:13 | 50.08539 | 18.90871 | 16129 ft | 363 kts | 185° |
| 2026-05-08 07:13 | 50.06002 | 18.90678 | 16786 ft | 367 kts | 185° |
| 2026-05-08 07:14 | 50.03441 | 18.90486 | 17421 ft | 369 kts | 185° |
| 2026-05-08 07:14 | 50.00865 | 18.90296 | 17996 ft | 372 kts | 185° |
| 2026-05-08 07:14 | 49.98263 | 18.90104 | 18573 ft | 376 kts | 185° |
| 2026-05-08 07:14 | 49.95639 | 18.89912 | 19070 ft | 380 kts | 185° |
| 2026-05-08 07:15 | 49.92966 | 18.89709 | 19526 ft | 386 kts | 185° |
| 2026-05-08 07:15 | 49.90269 | 18.89506 | 20092 ft | 388 kts | 185° |
| 2026-05-08 07:15 | 49.87573 | 18.89308 | 20675 ft | 390 kts | 185° |
| 2026-05-08 07:15 | 49.84885 | 18.89112 | 21187 ft | 392 kts | 185° |
| 2026-05-08 07:16 | 49.82144 | 18.88911 | 21668 ft | 395 kts | 186° |
| 2026-05-08 07:16 | 49.80285 | 18.88774 | 21979 ft | 397 kts | 186° |
| 2026-05-08 07:16 | 49.77506 | 18.88573 | 22443 ft | 401 kts | 185° |
| 2026-05-08 07:16 | 49.73804 | 18.88302 | 23073 ft | 404 kts | 185° |
| 2026-05-08 07:17 | 49.70985 | 18.88095 | 23535 ft | 406 kts | 186° |
| 2026-05-08 07:17 | 49.68154 | 18.87886 | 23979 ft | 409 kts | 186° |
| 2026-05-08 07:17 | 49.66229 | 18.87743 | 24276 ft | 411 kts | 186° |
| 2026-05-08 07:17 | 49.63360 | 18.87535 | 24752 ft | 413 kts | 186° |
| 2026-05-08 07:18 | 49.60486 | 18.87326 | 25213 ft | 414 kts | 186° |
| 2026-05-08 07:18 | 49.57603 | 18.87116 | 25619 ft | 415 kts | 186° |
| 2026-05-08 07:18 | 49.54708 | 18.86903 | 25971 ft | 418 kts | 186° |
| 2026-05-08 07:18 | 49.51829 | 18.86689 | 26397 ft | 420 kts | 186° |
| 2026-05-08 07:19 | 49.48902 | 18.86477 | 26799 ft | 421 kts | 186° |
| 2026-05-08 07:19 | 49.45968 | 18.86267 | 27154 ft | 423 kts | 186° |
| 2026-05-08 07:19 | 49.43013 | 18.86056 | 27546 ft | 424 kts | 186° |
| 2026-05-08 07:19 | 49.40050 | 18.85843 | 27892 ft | 426 kts | 186° |
| 2026-05-08 07:20 | 49.37077 | 18.85629 | 28224 ft | 428 kts | 186° |
| 2026-05-08 07:20 | 49.34099 | 18.85413 | 28512 ft | 429 kts | 186° |
| 2026-05-08 07:20 | 49.31133 | 18.85198 | 28831 ft | 431 kts | 186° |
| 2026-05-08 07:20 | 49.28127 | 18.84982 | 29166 ft | 432 kts | 186° |
| 2026-05-08 07:21 | 49.25113 | 18.84766 | 29460 ft | 433 kts | 186° |
| 2026-05-08 07:21 | 49.22095 | 18.84547 | 29771 ft | 434 kts | 186° |
| 2026-05-08 07:21 | 49.19073 | 18.84328 | 30155 ft | 433 kts | 186° |
| 2026-05-08 07:21 | 49.16073 | 18.84113 | 30559 ft | 431 kts | 186° |
| 2026-05-08 07:22 | 49.13079 | 18.83904 | 30877 ft | 430 kts | 186° |
| 2026-05-08 07:22 | 49.10117 | 18.83694 | 31163 ft | 431 kts | 186° |
| 2026-05-08 07:22 | 49.07117 | 18.83479 | 31472 ft | 431 kts | 187° |
| 2026-05-08 07:22 | 49.04117 | 18.83264 | 31816 ft | 430 kts | 187° |
| 2026-05-08 07:23 | 49.01127 | 18.83053 | 32135 ft | 430 kts | 187° |
| 2026-05-08 07:23 | 48.98143 | 18.82844 | 32455 ft | 428 kts | 187° |
| 2026-05-08 07:23 | 48.95156 | 18.82632 | 32724 ft | 428 kts | 187° |
| 2026-05-08 07:23 | 48.92170 | 18.82418 | 32941 ft | 430 kts | 187° |
| 2026-05-08 07:24 | 48.89172 | 18.82328 | 33207 ft | 433 kts | 181° |
| 2026-05-08 07:24 | 48.86162 | 18.82890 | 33485 ft | 437 kts | 173° |
| 2026-05-08 07:24 | 48.83252 | 18.84108 | 33741 ft | 442 kts | 166° |
| 2026-05-08 07:24 | 48.80359 | 18.85684 | 33965 ft | 442 kts | 165° |
| 2026-05-08 07:25 | 48.77456 | 18.87294 | 34138 ft | 444 kts | 165° |
| 2026-05-08 07:25 | 48.74557 | 18.88902 | 34418 ft | 443 kts | 165° |
| 2026-05-08 07:25 | 48.68764 | 18.92076 | 34917 ft | 442 kts | 165° |
| 2026-05-08 07:26 | 48.65861 | 18.93646 | 35074 ft | 444 kts | 165° |
| 2026-05-08 07:26 | 48.60000 | 18.96793 | 35072 ft | 448 kts | 165° |
| 2026-05-08 07:27 | 48.54197 | 18.99901 | 35064 ft | 441 kts | 166° |
| 2026-05-08 07:27 | 48.48401 | 19.02993 | 35064 ft | 442 kts | 166° |
| 2026-05-08 07:28 | 48.42586 | 19.06089 | 35070 ft | 443 kts | 166° |
| 2026-05-08 07:28 | 48.36766 | 19.09181 | 35077 ft | 444 kts | 166° |
| 2026-05-08 07:29 | 48.30958 | 19.12254 | 35074 ft | 446 kts | 166° |
| 2026-05-08 07:29 | 48.25106 | 19.15351 | 35069 ft | 445 kts | 166° |
| 2026-05-08 07:30 | 48.19289 | 19.18423 | 35070 ft | 444 kts | 166° |
| 2026-05-08 07:30 | 48.13465 | 19.21496 | 35082 ft | 443 kts | 166° |
| 2026-05-08 07:31 | 48.07630 | 19.24564 | 35081 ft | 443 kts | 166° |
| 2026-05-08 07:31 | 48.01812 | 19.27413 | 35073 ft | 441 kts | 168° |
| 2026-05-08 07:32 | 47.95931 | 19.30047 | 35068 ft | 440 kts | 169° |
| 2026-05-08 07:32 | 47.90045 | 19.32683 | 35069 ft | 440 kts | 169° |
| 2026-05-08 07:33 | 47.84206 | 19.35330 | 35077 ft | 440 kts | 169° |
| 2026-05-08 07:33 | 47.78343 | 19.38002 | 35075 ft | 440 kts | 168° |
| 2026-05-08 07:34 | 47.72464 | 19.40670 | 35085 ft | 441 kts | 168° |
| 2026-05-08 07:34 | 47.66618 | 19.43323 | 35076 ft | 441 kts | 168° |
| 2026-05-08 07:35 | 47.60740 | 19.45981 | 35076 ft | 442 kts | 169° |
| 2026-05-08 07:35 | 47.54832 | 19.48647 | 35073 ft | 443 kts | 169° |
| 2026-05-08 07:36 | 47.48925 | 19.51308 | 35079 ft | 444 kts | 169° |
| 2026-05-08 07:36 | 47.43041 | 19.53949 | 35080 ft | 445 kts | 169° |
| 2026-05-08 07:37 | 47.37105 | 19.56614 | 35069 ft | 446 kts | 169° |
| 2026-05-08 07:37 | 47.31160 | 19.59273 | 35076 ft | 446 kts | 169° |
| 2026-05-08 07:38 | 47.25225 | 19.61925 | 35074 ft | 445 kts | 169° |
| 2026-05-08 07:38 | 47.19337 | 19.64542 | 35067 ft | 444 kts | 169° |
| 2026-05-08 07:39 | 47.13414 | 19.67171 | 35080 ft | 444 kts | 169° |
| 2026-05-08 07:39 | 47.07490 | 19.69790 | 35070 ft | 443 kts | 169° |
| 2026-05-08 07:40 | 47.01618 | 19.72395 | 35072 ft | 442 kts | 169° |
| 2026-05-08 07:40 | 46.95714 | 19.74995 | 35077 ft | 442 kts | 169° |
| 2026-05-08 07:41 | 46.89804 | 19.77586 | 35070 ft | 442 kts | 169° |
| 2026-05-08 07:41 | 46.83935 | 19.80162 | 35077 ft | 443 kts | 169° |
| 2026-05-08 07:42 | 46.78004 | 19.82764 | 35073 ft | 445 kts | 169° |
| 2026-05-08 07:42 | 46.72044 | 19.85367 | 35070 ft | 446 kts | 170° |
| 2026-05-08 07:43 | 46.66085 | 19.87965 | 35079 ft | 447 kts | 169° |
| 2026-05-08 07:43 | 46.60108 | 19.90564 | 35069 ft | 448 kts | 170° |
| 2026-05-08 07:44 | 46.54155 | 19.93148 | 35082 ft | 449 kts | 170° |
| 2026-05-08 07:44 | 46.48147 | 19.95747 | 35075 ft | 450 kts | 170° |
| 2026-05-08 07:45 | 46.42145 | 19.98341 | 35070 ft | 450 kts | 170° |
| 2026-05-08 07:45 | 46.36133 | 20.00936 | 35077 ft | 450 kts | 170° |
| 2026-05-08 07:46 | 46.30176 | 20.03499 | 35069 ft | 448 kts | 170° |
| 2026-05-08 07:46 | 46.24196 | 20.06069 | 35085 ft | 448 kts | 170° |
| 2026-05-08 07:47 | 46.18218 | 20.08627 | 35065 ft | 447 kts | 170° |
| 2026-05-08 07:47 | 46.12228 | 20.10376 | 35078 ft | 438 kts | 180° |
| 2026-05-08 07:48 | 46.06180 | 20.11367 | 35079 ft | 436 kts | 180° |
| 2026-05-08 07:48 | 46.00133 | 20.12371 | 35070 ft | 436 kts | 180° |
| 2026-05-08 07:49 | 45.94102 | 20.13436 | 35073 ft | 436 kts | 180° |
| 2026-05-08 07:49 | 45.88110 | 20.14515 | 35067 ft | 436 kts | 180° |
| 2026-05-08 07:50 | 45.82080 | 20.15602 | 35082 ft | 436 kts | 180° |
| 2026-05-08 07:50 | 45.76047 | 20.16686 | 35072 ft | 436 kts | 180° |
| 2026-05-08 07:51 | 45.70036 | 20.17766 | 35080 ft | 437 kts | 180° |
| 2026-05-08 07:51 | 45.64033 | 20.18837 | 35071 ft | 439 kts | 180° |
| 2026-05-08 07:52 | 45.57965 | 20.19916 | 35071 ft | 439 kts | 179° |
| 2026-05-08 07:52 | 45.51920 | 20.20995 | 35078 ft | 440 kts | 179° |
| 2026-05-08 07:53 | 45.45835 | 20.22087 | 35070 ft | 440 kts | 179° |
| 2026-05-08 07:53 | 45.39744 | 20.23124 | 35069 ft | 441 kts | 180° |
| 2026-05-08 07:54 | 45.33638 | 20.23971 | 35074 ft | 440 kts | 181° |
| 2026-05-08 07:54 | 45.27577 | 20.24778 | 35075 ft | 440 kts | 181° |
| 2026-05-08 07:55 | 45.21470 | 20.25614 | 35072 ft | 440 kts | 181° |
| 2026-05-08 07:55 | 45.15368 | 20.26468 | 35073 ft | 439 kts | 181° |
| 2026-05-08 07:56 | 45.09281 | 20.27313 | 35081 ft | 439 kts | 181° |
| 2026-05-08 07:56 | 45.03238 | 20.28157 | 35079 ft | 439 kts | 180° |
| 2026-05-08 07:57 | 44.97148 | 20.29010 | 35079 ft | 439 kts | 181° |
| 2026-05-08 07:57 | 44.91075 | 20.29849 | 35071 ft | 438 kts | 180° |
| 2026-05-08 07:58 | 44.85040 | 20.30684 | 35071 ft | 438 kts | 180° |
| 2026-05-08 07:58 | 44.78977 | 20.31554 | 35079 ft | 437 kts | 179° |
| 2026-05-08 07:59 | 44.72942 | 20.32589 | 35072 ft | 436 kts | 179° |
| 2026-05-08 07:59 | 44.66941 | 20.33638 | 35077 ft | 437 kts | 179° |
| 2026-05-08 08:00 | 44.60884 | 20.34681 | 35064 ft | 439 kts | 179° |
| 2026-05-08 08:00 | 44.54821 | 20.35713 | 35079 ft | 439 kts | 179° |
| 2026-05-08 08:01 | 44.48754 | 20.36743 | 35082 ft | 439 kts | 179° |
| 2026-05-08 08:01 | 44.42715 | 20.37760 | 35070 ft | 439 kts | 179° |
| 2026-05-08 08:02 | 44.36621 | 20.38779 | 35069 ft | 440 kts | 179° |
| 2026-05-08 08:02 | 44.30567 | 20.39795 | 35067 ft | 441 kts | 179° |
| 2026-05-08 08:03 | 44.24469 | 20.40823 | 35073 ft | 441 kts | 179° |
| 2026-05-08 08:03 | 44.18358 | 20.41848 | 35078 ft | 441 kts | 179° |
| 2026-05-08 08:04 | 44.12289 | 20.42868 | 35075 ft | 441 kts | 179° |
| 2026-05-08 08:04 | 44.06188 | 20.43884 | 35071 ft | 441 kts | 179° |
| 2026-05-08 08:05 | 44.01084 | 20.44738 | 35068 ft | 441 kts | 179° |
| 2026-05-08 08:05 | 43.95028 | 20.45753 | 35065 ft | 439 kts | 179° |
| 2026-05-08 08:06 | 43.88941 | 20.46733 | 35076 ft | 439 kts | 180° |
| 2026-05-08 08:06 | 43.82868 | 20.47566 | 35067 ft | 438 kts | 180° |
| 2026-05-08 08:07 | 43.76840 | 20.48362 | 35075 ft | 437 kts | 180° |
| 2026-05-08 08:07 | 43.70774 | 20.49175 | 35083 ft | 437 kts | 180° |
| 2026-05-08 08:08 | 43.64745 | 20.49995 | 35085 ft | 437 kts | 180° |
| 2026-05-08 08:08 | 43.58698 | 20.50819 | 35066 ft | 435 kts | 180° |
| 2026-05-08 08:09 | 43.52678 | 20.51635 | 35094 ft | 434 kts | 180° |
| 2026-05-08 08:09 | 43.46647 | 20.52453 | 35074 ft | 436 kts | 180° |
| 2026-05-08 08:10 | 43.40591 | 20.53266 | 35079 ft | 437 kts | 180° |
| 2026-05-08 08:10 | 43.34531 | 20.54086 | 35067 ft | 438 kts | 180° |
| 2026-05-08 08:11 | 43.28482 | 20.54910 | 35075 ft | 439 kts | 180° |
| 2026-05-08 08:11 | 43.22396 | 20.55729 | 35076 ft | 438 kts | 180° |
| 2026-05-08 08:12 | 43.16314 | 20.56546 | 35088 ft | 439 kts | 180° |
| 2026-05-08 08:12 | 43.10271 | 20.57358 | 35078 ft | 439 kts | 180° |
| 2026-05-08 08:13 | 43.04177 | 20.58171 | 35089 ft | 439 kts | 180° |
| 2026-05-08 08:13 | 42.98170 | 20.60059 | 35094 ft | 448 kts | 165° |
| 2026-05-08 08:14 | 42.92379 | 20.63150 | 35078 ft | 450 kts | 163° |
| 2026-05-08 08:14 | 42.86555 | 20.66316 | 35091 ft | 449 kts | 164° |
| 2026-05-08 08:15 | 42.80739 | 20.69416 | 35095 ft | 449 kts | 164° |
| 2026-05-08 08:15 | 42.74917 | 20.72483 | 35087 ft | 448 kts | 164° |
| 2026-05-08 08:16 | 42.69139 | 20.75512 | 35096 ft | 447 kts | 164° |
| 2026-05-08 08:16 | 42.63320 | 20.78556 | 35097 ft | 447 kts | 165° |
| 2026-05-08 08:17 | 42.57501 | 20.81587 | 35085 ft | 447 kts | 165° |
| 2026-05-08 08:17 | 42.51689 | 20.84624 | 35107 ft | 446 kts | 165° |
| 2026-05-08 08:18 | 42.45883 | 20.87645 | 35097 ft | 447 kts | 165° |
| 2026-05-08 08:18 | 42.40108 | 20.90643 | 35099 ft | 446 kts | 165° |
| 2026-05-08 08:19 | 42.34301 | 20.93656 | 35106 ft | 446 kts | 165° |
| 2026-05-08 08:19 | 42.28524 | 20.96644 | 35099 ft | 446 kts | 165° |
| 2026-05-08 08:20 | 42.22722 | 20.99641 | 35079 ft | 445 kts | 165° |
| 2026-05-08 08:20 | 42.16947 | 21.02616 | 35106 ft | 443 kts | 165° |
| 2026-05-08 08:21 | 42.11143 | 21.05022 | 35105 ft | 433 kts | 178° |
| 2026-05-08 08:21 | 42.05213 | 21.05079 | 35112 ft | 424 kts | 190° |
| 2026-05-08 08:22 | 41.99313 | 21.04420 | 35102 ft | 425 kts | 190° |
| 2026-05-08 08:22 | 41.93434 | 21.03776 | 35106 ft | 426 kts | 190° |
| 2026-05-08 08:23 | 41.87485 | 21.03158 | 35104 ft | 429 kts | 190° |
| 2026-05-08 08:23 | 41.81547 | 21.02554 | 35106 ft | 430 kts | 190° |
| 2026-05-08 08:24 | 41.75573 | 21.01961 | 35105 ft | 429 kts | 190° |
| 2026-05-08 08:24 | 41.69616 | 21.01371 | 35120 ft | 430 kts | 190° |
| 2026-05-08 08:25 | 41.63653 | 21.00781 | 35106 ft | 429 kts | 190° |
| 2026-05-08 08:25 | 41.57711 | 21.00193 | 35099 ft | 427 kts | 190° |
| 2026-05-08 08:26 | 41.51828 | 20.99610 | 35116 ft | 424 kts | 190° |
| 2026-05-08 08:26 | 41.45958 | 20.99029 | 35113 ft | 422 kts | 191° |
| 2026-05-08 08:27 | 41.40090 | 20.98454 | 35119 ft | 421 kts | 191° |